Time;durP1;ratioP1;P1;durP2;ratioP2;P2;SDS_P1;SDS_P2;PMS_P1;PMS_P2;Temp;Humidity;BMP_temperature;BMP_pressure;BME280_temperature;BME280_humidity;BME280_pressure;Samples;Min_cycle;Max_cycle;Signal;HPM_P1;HPM_P2
2022/04/23 00:01:21;;;;;;;25.47;18.50;;;8.60;99.90;;;;;;5092198;28;20950;-75
2022/04/23 00:03:48;;;;;;;26.33;19.07;;;8.50;99.90;;;;;;5102835;28;20457;-76
2022/04/23 00:06:15;;;;;;;26.83;17.50;;;8.50;99.90;;;;;;5102050;28;20455;-76
2022/04/23 00:08:43;;;;;;;24.67;18.27;;;8.50;99.90;;;;;;5109820;28;20454;-75
2022/04/23 00:11:09;;;;;;;27.00;19.10;;;8.50;99.90;;;;;;5112545;28;20458;-75
2022/04/23 00:13:38;;;;;;;28.23;19.80;;;8.40;99.90;;;;;;5111499;28;20453;-76
2022/04/23 00:16:05;;;;;;;24.90;18.77;;;8.40;99.90;;;;;;5112365;28;20456;-75
2022/04/23 00:18:32;;;;;;;29.20;18.30;;;8.40;99.90;;;;;;5095519;28;20483;-73
2022/04/23 00:20:58;;;;;;;28.70;18.50;;;8.30;99.90;;;;;;5092423;28;20544;-73
2022/04/23 00:23:26;;;;;;;28.20;19.97;;;8.30;99.90;;;;;;5112313;28;20445;-73
2022/04/23 00:25:55;;;;;;;32.07;21.10;;;8.30;99.90;;;;;;5094300;28;20461;-73
2022/04/23 00:28:22;;;;;;;31.00;20.80;;;8.20;99.90;;;;;;5111413;28;21137;-73
2022/04/23 00:30:49;;;;;;;33.73;22.23;;;8.20;99.90;;;;;;5104520;28;20998;-73
2022/04/23 00:33:15;;;;;;;37.87;23.43;;;8.20;99.90;;;;;;5111178;28;20450;-73
2022/04/23 00:35:43;;;;;;;36.50;23.63;;;8.10;99.90;;;;;;5098389;28;20504;-73
2022/04/23 00:38:09;;;;;;;38.30;22.83;;;8.10;99.90;;;;;;5092850;28;20573;-73
2022/04/23 00:40:38;;;;;;;31.70;21.80;;;8.10;99.90;;;;;;5091422;28;20477;-73
2022/04/23 00:43:10;;;;;;;40.83;23.80;;;8.10;99.90;;;;;;5091445;28;20477;-73
2022/04/23 00:45:37;;;;;;;39.10;25.07;;;8.00;99.90;;;;;;5092625;28;20454;-73
2022/04/23 00:48:04;;;;;;;36.70;23.60;;;8.00;99.90;;;;;;5107075;28;20457;-73
2022/04/23 00:50:31;;;;;;;36.97;25.03;;;8.00;99.90;;;;;;5110753;28;20466;-73
2022/04/23 00:53:01;;;;;;;35.60;23.83;;;8.00;99.90;;;;;;5111722;28;20494;-73
2022/04/23 00:55:29;;;;;;;36.33;24.33;;;8.00;99.90;;;;;;5102580;28;20970;-73
2022/04/23 00:57:58;;;;;;;40.97;24.43;;;8.00;99.90;;;;;;5104578;28;20478;-73
2022/04/23 01:00:26;;;;;;;39.17;25.33;;;7.90;99.90;;;;;;5111334;28;20891;-73
2022/04/23 01:02:54;;;;;;;34.87;23.80;;;7.90;99.90;;;;;;5111760;28;20544;-73
2022/04/23 01:05:23;;;;;;;39.03;25.03;;;7.90;99.90;;;;;;5111383;28;20449;-73
2022/04/23 01:07:50;;;;;;;35.30;24.50;;;7.90;99.90;;;;;;5102714;28;20536;-73
2022/04/23 01:10:17;;;;;;;36.83;24.47;;;7.90;99.90;;;;;;5110976;28;20930;-73
2022/04/23 01:12:45;;;;;;;40.20;24.77;;;7.90;99.90;;;;;;5098032;28;20504;-73
2022/04/23 01:15:13;;;;;;;39.33;26.10;;;7.90;99.90;;;;;;5091158;28;20461;-73
2022/04/23 01:17:41;;;;;;;44.60;26.83;;;7.80;99.90;;;;;;5092415;28;20565;-73
2022/04/23 01:20:12;;;;;;;40.20;24.43;;;7.80;99.90;;;;;;5096850;28;20827;-73
2022/04/23 01:22:40;;;;;;;39.70;25.40;;;7.80;99.90;;;;;;5098291;28;20940;-73
2022/04/23 01:25:10;;;;;;;37.33;24.80;;;7.80;99.90;;;;;;5098286;28;20462;-73
2022/04/23 01:27:38;;;;;;;39.40;25.07;;;7.80;99.90;;;;;;5110455;28;20454;-73
2022/04/23 01:30:07;;;;;;;34.87;23.73;;;7.80;99.90;;;;;;5110692;28;20502;-73
2022/04/23 01:32:34;;;;;;;39.40;24.30;;;7.80;99.90;;;;;;5099927;28;20950;-73
2022/04/23 01:35:01;;;;;;;39.97;25.70;;;7.70;99.90;;;;;;5090225;28;20876;-73
2022/04/23 01:37:29;;;;;;;38.47;24.83;;;7.70;99.90;;;;;;5100263;28;20897;-73
2022/04/23 01:39:55;;;;;;;38.20;23.67;;;7.70;99.90;;;;;;5109993;28;20470;-73
2022/04/23 01:42:22;;;;;;;37.43;25.03;;;7.70;99.90;;;;;;5108680;28;20449;-73
2022/04/23 01:44:50;;;;;;;35.57;22.73;;;7.70;99.90;;;;;;5109405;28;20449;-73
2022/04/23 01:47:17;;;;;;;36.37;25.30;;;7.70;99.90;;;;;;5110031;28;20457;-73
2022/04/23 01:49:45;;;;;;;40.53;25.70;;;7.70;99.90;;;;;;5109683;28;20470;-73
2022/04/23 01:52:11;;;;;;;36.27;24.23;;;7.80;99.90;;;;;;5110735;28;20453;-73
2022/04/23 01:54:39;;;;;;;37.03;24.17;;;7.80;99.90;;;;;;5096737;28;20501;-73
2022/04/23 01:57:07;;;;;;;38.93;24.10;;;7.90;99.90;;;;;;5097122;28;21045;-73
2022/04/23 01:59:34;;;;;;;35.83;24.70;;;7.90;99.90;;;;;;5110740;28;20457;-73
2022/04/23 02:02:00;;;;;;;38.13;25.20;;;8.00;99.90;;;;;;5115013;28;20871;-73
2022/04/23 02:04:27;;;;;;;38.97;25.83;;;8.00;99.90;;;;;;5114101;27;20498;-73
2022/04/23 02:06:54;;;;;;;38.77;24.40;;;8.10;99.90;;;;;;5105094;28;20453;-73
2022/04/23 02:09:20;;;;;;;37.97;24.50;;;8.10;99.90;;;;;;5113701;28;20473;-73
2022/04/23 02:11:48;;;;;;;38.57;25.23;;;8.20;99.90;;;;;;5114750;28;20457;-73
2022/04/23 02:14:15;;;;;;;34.40;24.00;;;8.30;99.90;;;;;;5114133;28;20514;-73
2022/04/23 02:16:41;;;;;;;36.30;25.10;;;8.30;99.90;;;;;;5104407;28;20458;-73
2022/04/23 02:19:08;;;;;;;34.30;23.13;;;8.40;99.90;;;;;;5114420;28;20530;-73
2022/04/23 02:21:35;;;;;;;34.43;23.40;;;8.40;99.90;;;;;;5107959;28;20450;-73
2022/04/23 02:24:03;;;;;;;33.60;22.97;;;8.50;99.90;;;;;;5113465;28;21052;-73
2022/04/23 02:26:30;;;;;;;34.80;22.73;;;8.50;99.90;;;;;;5113120;28;20901;-73
2022/04/23 02:28:58;;;;;;;33.93;24.57;;;8.60;99.90;;;;;;5113426;28;20598;-73
2022/04/23 02:31:25;;;;;;;34.50;22.50;;;8.60;99.90;;;;;;5104750;28;20895;-73
2022/04/23 02:33:52;;;;;;;35.03;23.07;;;8.70;99.90;;;;;;5108678;28;20511;-73
2022/04/23 02:36:18;;;;;;;36.10;22.20;;;8.70;99.90;;;;;;5113866;28;20506;-74
2022/04/23 02:38:45;;;;;;;42.10;25.90;;;8.80;99.90;;;;;;5094408;28;20877;-73
2022/04/23 02:41:12;;;;;;;31.10;21.93;;;8.80;99.90;;;;;;5093769;28;20467;-73
2022/04/23 02:43:39;;;;;;;34.70;23.77;;;8.80;99.90;;;;;;5093283;28;20480;-73
2022/04/23 02:46:08;;;;;;;31.13;21.33;;;8.80;99.90;;;;;;5098428;28;20450;-73
2022/04/23 02:48:35;;;;;;;31.33;22.67;;;8.80;99.90;;;;;;5112769;28;20449;-73
2022/04/23 02:51:02;;;;;;;30.17;21.07;;;8.90;99.90;;;;;;5113656;28;20485;-73
2022/04/23 02:53:29;;;;;;;30.60;21.00;;;8.90;99.90;;;;;;5112842;28;20499;-73
2022/04/23 02:55:56;;;;;;;26.97;19.87;;;8.90;99.90;;;;;;5113927;28;20445;-73
2022/04/23 02:58:25;;;;;;;30.70;22.03;;;8.90;99.90;;;;;;5096065;28;20480;-73
2022/04/23 03:00:53;;;;;;;30.17;20.20;;;8.90;99.90;;;;;;5100325;28;20550;-73
2022/04/23 03:03:22;;;;;;;28.60;20.17;;;8.90;99.90;;;;;;5097171;28;20529;-73
2022/04/23 03:05:49;;;;;;;31.57;21.53;;;8.90;99.90;;;;;;5093435;28;20455;-73
2022/04/23 03:08:15;;;;;;;30.50;20.87;;;8.90;99.90;;;;;;5107440;28;20445;-73
2022/04/23 03:10:43;;;;;;;29.60;20.27;;;8.90;99.90;;;;;;5112143;28;20511;-73
2022/04/23 03:13:10;;;;;;;29.43;20.30;;;9.00;99.90;;;;;;5111887;28;20489;-73
2022/04/23 03:15:38;;;;;;;28.30;19.30;;;9.00;99.90;;;;;;5099709;28;20449;-73
2022/04/23 03:18:08;;;;;;;29.83;20.83;;;9.00;99.90;;;;;;5099011;28;20567;-73
2022/04/23 03:20:36;;;;;;;25.93;19.40;;;8.90;99.90;;;;;;5111306;28;20508;-73
2022/04/23 03:23:04;;;;;;;29.33;20.40;;;8.90;99.90;;;;;;5096359;28;20450;-73
2022/04/23 03:25:32;;;;;;;31.50;19.80;;;8.90;99.90;;;;;;5092361;28;21048;-73
2022/04/23 03:27:59;;;;;;;31.83;19.27;;;8.90;99.90;;;;;;5107116;28;20550;-73
2022/04/23 03:30:26;;;;;;;23.60;18.00;;;8.90;99.90;;;;;;5096624;28;20569;-73
2022/04/23 03:32:53;;;;;;;28.40;19.57;;;8.90;99.90;;;;;;5092444;28;20459;-73
2022/04/23 03:35:20;;;;;;;26.80;18.67;;;9.00;99.90;;;;;;5111203;28;20453;-73
2022/04/23 03:37:48;;;;;;;28.30;18.87;;;9.00;99.90;;;;;;5100020;28;20956;-73
2022/04/23 03:40:16;;;;;;;29.73;19.40;;;9.00;99.90;;;;;;5094748;28;20970;-73
2022/04/23 03:42:45;;;;;;;27.57;19.10;;;9.00;99.90;;;;;;5101176;28;20461;-73
2022/04/23 03:45:12;;;;;;;27.13;19.70;;;9.10;99.90;;;;;;5095011;28;20525;-73
2022/04/23 03:47:44;;;;;;;27.27;19.03;;;9.10;99.90;;;;;;5100528;28;20447;-73
2022/04/23 03:50:12;;;;;;;23.93;17.57;;;9.10;99.90;;;;;;5092311;28;20471;-73
2022/04/23 03:52:38;;;;;;;30.90;18.93;;;9.10;99.90;;;;;;5092612;28;20504;-73
2022/04/23 03:55:07;;;;;;;28.13;18.50;;;9.20;99.90;;;;;;5106939;28;20445;-73
2022/04/23 03:57:44;;;;;;;26.20;18.50;;;9.20;99.90;;;;;;5111121;28;20506;-73
2022/04/23 04:00:13;;;;;;;26.27;17.87;;;9.20;99.90;;;;;;5105533;28;20466;-73
2022/04/23 04:02:40;;;;;;;23.10;17.10;;;9.30;99.90;;;;;;5092274;28;20881;-73
2022/04/23 04:05:07;;;;;;;22.27;17.10;;;9.30;99.90;;;;;;5107265;28;20570;-73
2022/04/23 04:07:33;;;;;;;24.50;17.17;;;9.30;99.90;;;;;;5111813;28;20840;-73
2022/04/23 04:10:01;;;;;;;25.20;17.43;;;9.30;99.90;;;;;;5097332;28;20881;-73
2022/04/23 04:12:29;;;;;;;23.53;17.83;;;9.40;99.90;;;;;;5091870;28;20805;-73
2022/04/23 04:14:56;;;;;;;27.53;17.20;;;9.40;99.90;;;;;;5105314;28;20449;-73
2022/04/23 04:17:23;;;;;;;24.43;16.73;;;9.40;99.90;;;;;;5111351;28;20965;-73
2022/04/23 04:19:49;;;;;;;25.93;17.03;;;9.50;99.90;;;;;;5091802;28;21006;-73
2022/04/23 04:22:16;;;;;;;22.93;15.80;;;9.50;99.90;;;;;;5103137;28;20511;-74
2022/04/23 04:24:43;;;;;;;20.17;15.67;;;9.50;99.90;;;;;;5108982;28;20504;-74
2022/04/23 04:27:09;;;;;;;25.40;17.57;;;9.50;99.90;;;;;;5104522;28;20451;-74
2022/04/23 04:29:37;;;;;;;24.03;16.83;;;9.50;99.90;;;;;;5091482;28;20979;-74
2022/04/23 04:32:07;;;;;;;21.13;15.67;;;9.50;99.90;;;;;;5108639;28;20446;-75
2022/04/23 04:34:34;;;;;;;21.80;15.07;;;9.60;99.90;;;;;;5109430;28;20970;-74
2022/04/23 04:37:03;;;;;;;26.93;16.50;;;9.60;99.90;;;;;;5111698;28;20457;-74
2022/04/23 04:39:30;;;;;;;21.40;15.37;;;9.60;99.90;;;;;;5111886;28;20490;-74
2022/04/23 04:41:57;;;;;;;22.60;15.73;;;9.60;99.90;;;;;;5101725;28;20450;-74
2022/04/23 04:44:23;;;;;;;21.87;15.80;;;9.60;99.90;;;;;;5098913;28;20507;-74
2022/04/23 04:46:51;;;;;;;22.20;15.57;;;9.60;99.90;;;;;;5108161;28;20504;-73
2022/04/23 04:49:18;;;;;;;23.20;15.70;;;9.60;99.90;;;;;;5091380;28;20467;-73
2022/04/23 04:51:45;;;;;;;20.40;15.97;;;9.60;99.90;;;;;;5091505;28;20450;-73
2022/04/23 04:54:12;;;;;;;21.20;16.33;;;9.60;99.90;;;;;;5103574;28;20501;-73
2022/04/23 04:56:38;;;;;;;26.87;16.50;;;9.60;99.90;;;;;;5100032;28;20953;-73
2022/04/23 04:59:05;;;;;;;21.20;15.90;;;9.60;99.90;;;;;;5096941;28;20535;-73
2022/04/23 05:01:32;;;;;;;20.80;16.20;;;9.60;99.90;;;;;;5092512;28;20461;-72
2022/04/23 05:04:00;;;;;;;21.80;15.60;;;9.60;99.90;;;;;;5093680;28;20937;-73
2022/04/23 05:06:26;;;;;;;22.90;16.90;;;9.60;99.90;;;;;;5110894;28;20507;-73
2022/04/23 05:08:53;;;;;;;25.50;17.40;;;9.60;99.90;;;;;;5099239;28;20447;-73
2022/04/23 05:11:19;;;;;;;21.30;15.70;;;9.60;99.90;;;;;;5091116;28;20470;-73
2022/04/23 05:13:46;;;;;;;23.30;15.57;;;9.60;99.90;;;;;;5093228;28;20968;-73
2022/04/23 05:16:13;;;;;;;20.60;15.90;;;9.70;99.90;;;;;;5108413;28;20459;-72
2022/04/23 05:18:40;;;;;;;23.43;15.87;;;9.70;99.90;;;;;;5090620;28;20901;-73
2022/04/23 05:21:07;;;;;;;23.87;16.43;;;9.80;99.90;;;;;;5105988;28;20534;-73
2022/04/23 05:23:34;;;;;;;22.60;15.90;;;9.80;99.90;;;;;;5097866;28;20454;-73
2022/04/23 05:26:01;;;;;;;24.17;16.77;;;9.80;99.90;;;;;;5110733;28;20507;-73
2022/04/23 05:28:28;;;;;;;22.77;15.80;;;9.80;99.90;;;;;;5111193;28;20472;-73
2022/04/23 05:30:55;;;;;;;25.10;15.67;;;9.80;99.90;;;;;;5102070;28;20539;-73
2022/04/23 05:33:22;;;;;;;21.70;16.27;;;9.90;99.90;;;;;;5105126;28;20516;-73
2022/04/23 05:35:48;;;;;;;22.37;16.03;;;9.90;99.90;;;;;;5090692;28;20833;-73
2022/04/23 05:38:19;;;;;;;24.33;16.43;;;9.90;99.90;;;;;;5090616;28;20507;-73
2022/04/23 05:40:45;;;;;;;20.77;15.90;;;9.90;99.90;;;;;;5091880;28;20474;-72
2022/04/23 05:43:12;;;;;;;18.10;14.87;;;10.00;99.90;;;;;;5094479;28;20953;-72
2022/04/23 05:45:39;;;;;;;21.80;15.30;;;10.10;99.90;;;;;;5110221;28;20446;-72
2022/04/23 05:48:06;;;;;;;25.87;15.80;;;10.10;99.90;;;;;;5096512;28;20451;-72
2022/04/23 05:50:32;;;;;;;22.30;15.50;;;10.20;99.90;;;;;;5098703;28;20514;-72
2022/04/23 05:52:59;;;;;;;24.20;16.10;;;10.30;99.90;;;;;;5106109;28;20850;-72
2022/04/23 05:55:27;;;;;;;22.60;16.53;;;10.40;99.90;;;;;;5090162;28;20454;-73
2022/04/23 05:57:54;;;;;;;20.47;15.27;;;10.60;99.90;;;;;;5090468;28;20462;-73
2022/04/23 06:00:21;;;;;;;20.90;15.70;;;10.80;99.90;;;;;;5105525;28;21085;-73
2022/04/23 06:02:48;;;;;;;20.50;16.20;;;11.10;99.90;;;;;;5106367;28;20873;-73
2022/04/23 06:05:15;;;;;;;21.70;14.97;;;11.40;99.90;;;;;;5089944;28;20504;-73
2022/04/23 06:07:41;;;;;;;21.13;15.40;;;11.80;99.90;;;;;;5089462;28;20484;-73
2022/04/23 06:10:09;;;;;;;20.50;14.10;;;12.20;99.90;;;;;;5104948;28;20519;-73
2022/04/23 06:12:37;;;;;;;18.17;14.37;;;12.50;99.90;;;;;;5108672;28;20461;-73
2022/04/23 06:15:04;;;;;;;18.30;14.30;;;12.80;99.90;;;;;;5088938;28;20512;-73
2022/04/23 06:17:31;;;;;;;25.17;13.80;;;13.10;99.90;;;;;;5088859;28;20450;-73
2022/04/23 06:20:00;;;;;;;18.47;14.03;;;13.20;99.90;;;;;;5107031;28;20511;-73
2022/04/23 06:22:26;;;;;;;16.23;13.67;;;13.30;99.90;;;;;;5102127;28;20513;-73
2022/04/23 06:24:53;;;;;;;19.50;15.40;;;13.50;99.90;;;;;;5087596;28;20520;-73
2022/04/23 06:27:20;;;;;;;18.33;14.03;;;13.50;99.90;;;;;;5103049;28;20453;-75
2022/04/23 06:29:48;;;;;;;18.77;14.33;;;13.80;99.90;;;;;;5097193;28;20470;-74
2022/04/23 06:32:14;;;;;;;19.83;14.30;;;13.70;99.90;;;;;;5092061;28;20480;-74
2022/04/23 06:34:41;;;;;;;16.60;13.90;;;13.80;99.90;;;;;;5108406;28;20798;-74
2022/04/23 06:37:08;;;;;;;19.33;14.40;;;13.80;99.90;;;;;;5103134;28;20458;-74
2022/04/23 06:39:35;;;;;;;23.73;14.77;;;13.90;99.90;;;;;;5090831;28;21009;-74
2022/04/23 06:42:02;;;;;;;17.60;13.47;;;14.00;99.90;;;;;;5106788;28;20457;-74
2022/04/23 06:44:29;;;;;;;18.87;13.80;;;13.90;99.90;;;;;;5106630;28;20953;-74
2022/04/23 06:46:57;;;;;;;19.80;14.47;;;13.80;99.90;;;;;;5112507;28;20468;-74
2022/04/23 06:49:26;;;;;;;22.13;15.70;;;13.60;99.90;;;;;;5113668;28;20985;-75
2022/04/23 06:51:52;;;;;;;24.10;15.27;;;13.50;99.90;;;;;;5102449;28;20997;-74
2022/04/23 06:54:19;;;;;;;21.40;16.27;;;13.60;99.90;;;;;;5113616;28;20501;-74
2022/04/23 06:56:45;;;;;;;36.10;20.30;;;13.70;99.90;;;;;;5113286;28;20445;-75
2022/04/23 06:59:12;;;;;;;23.20;15.87;;;13.90;99.90;;;;;;5113738;28;21058;-75
2022/04/23 07:01:40;;;;;;;19.83;15.37;;;14.10;99.90;;;;;;5111826;28;20864;-74
2022/04/23 07:04:08;;;;;;;19.50;15.30;;;14.30;99.90;;;;;;5112407;28;20458;-74
2022/04/23 07:06:35;;;;;;;20.50;14.20;;;14.30;99.90;;;;;;5097288;28;20922;-74
2022/04/23 07:09:02;;;;;;;21.33;14.70;;;14.30;99.90;;;;;;5093357;28;20458;-75
2022/04/23 07:11:29;;;;;;;19.70;15.00;;;14.50;99.90;;;;;;5093441;28;20563;-74
2022/04/23 07:13:56;;;;;;;26.07;16.30;;;14.50;99.90;;;;;;5092855;28;20459;-74
2022/04/23 07:16:22;;;;;;;20.43;15.73;;;14.10;99.90;;;;;;5093290;28;20450;-74
2022/04/23 07:18:52;;;;;;;23.17;15.97;;;13.80;99.90;;;;;;5106655;28;20510;-74
2022/04/23 07:21:20;;;;;;;23.33;16.77;;;13.50;99.90;;;;;;5096429;28;20509;-75
2022/04/23 07:24:05;;;;;;;27.47;17.40;;;13.20;99.90;;;;;;5093068;28;20455;-75
2022/04/23 07:26:35;;;;;;;25.90;17.70;;;12.90;99.90;;;;;;5100404;28;20946;-74
2022/04/23 07:29:03;;;;;;;25.73;16.70;;;12.80;99.90;;;;;;5101994;28;20450;-75
2022/04/23 07:31:30;;;;;;;26.43;17.23;;;12.60;99.90;;;;;;5113027;28;20540;-77
2022/04/23 07:39:27;;;;;;;27.27;18.03;;;12.30;99.90;;;;;;5102523;28;21030;-75
2022/04/23 07:41:54;;;;;;;25.23;18.03;;;12.30;99.90;;;;;;5110386;28;20800;-76
2022/04/23 07:44:22;;;;;;;35.17;20.80;;;12.30;99.90;;;;;;5104367;28;20452;-75
2022/04/23 07:46:49;;;;;;;56.93;33.03;;;12.50;99.90;;;;;;5102893;28;20877;-74
2022/04/23 07:49:15;;;;;;;29.43;18.57;;;12.50;99.90;;;;;;5105192;28;20910;-74
2022/04/23 07:51:44;;;;;;;29.43;20.10;;;12.70;99.90;;;;;;5111399;28;20454;-75
2022/04/23 07:54:10;;;;;;;30.00;19.10;;;12.80;99.90;;;;;;5111320;28;20950;-74
2022/04/23 07:56:38;;;;;;;33.20;22.23;;;12.80;99.90;;;;;;5098045;28;20455;-74
2022/04/23 07:59:04;;;;;;;41.93;25.10;;;13.20;99.90;;;;;;5102182;28;20473;-75
2022/04/23 08:01:31;;;;;;;27.57;19.10;;;13.60;99.90;;;;;;5110980;28;20454;-74
2022/04/23 08:03:58;;;;;;;26.07;19.00;;;13.80;99.90;;;;;;5111567;28;20449;-74
2022/04/23 08:06:25;;;;;;;32.33;20.57;;;13.90;99.90;;;;;;5112454;28;20968;-75
2022/04/23 08:08:53;;;;;;;34.03;21.77;;;14.20;99.90;;;;;;5106790;28;20438;-75
2022/04/23 08:11:22;;;;;;;24.73;17.80;;;14.40;99.90;;;;;;5096072;28;20568;-74
2022/04/23 08:13:50;;;;;;;28.33;18.90;;;14.70;99.90;;;;;;5091737;28;20523;-74
2022/04/23 08:16:16;;;;;;;24.80;17.43;;;14.80;99.90;;;;;;5090849;28;20458;-75
2022/04/23 08:18:43;;;;;;;23.90;16.23;;;14.80;99.90;;;;;;5101501;28;20515;-75
2022/04/23 08:21:10;;;;;;;26.67;17.53;;;14.70;99.90;;;;;;5111440;28;20538;-74
2022/04/23 08:23:36;;;;;;;22.60;16.10;;;14.70;99.90;;;;;;5111531;28;20424;-75
2022/04/23 08:26:05;;;;;;;27.53;17.67;;;14.60;99.90;;;;;;5110105;28;20457;-75
2022/04/23 08:31:16;;;;;;;27.43;17.63;;;14.50;99.90;;;;;;5112149;28;20471;-75
2022/04/23 08:34:01;;;;;;;28.50;16.73;;;14.60;99.90;;;;;;5092297;28;20459;-75
2022/04/23 08:36:30;;;;;;;24.00;16.73;;;14.60;99.90;;;;;;5091983;28;20446;-75
2022/04/23 08:38:58;;;;;;;24.73;17.00;;;14.70;99.90;;;;;;5101765;28;20493;-74
2022/04/23 08:41:29;;;;;;;23.03;16.30;;;14.70;99.90;;;;;;5111656;28;20453;-75
2022/04/23 08:43:57;;;;;;;22.47;15.87;;;14.50;99.90;;;;;;5090810;28;20877;-75
2022/04/23 08:46:26;;;;;;;23.50;16.80;;;14.40;99.90;;;;;;5098181;28;20528;-75
2022/04/23 08:48:59;;;;;;;24.40;16.63;;;14.50;99.90;;;;;;5092609;28;20455;-74
2022/04/23 08:51:27;;;;;;;22.30;15.63;;;14.60;99.90;;;;;;5096088;28;20450;-74
2022/04/23 08:53:56;;;;;;;21.80;15.73;;;14.50;99.90;;;;;;5110574;27;20453;-75
2022/04/23 08:56:23;;;;;;;22.10;14.70;;;14.50;99.90;;;;;;5096161;28;20480;-75
2022/04/23 08:58:51;;;;;;;23.67;16.13;;;14.60;99.90;;;;;;5104178;28;20453;-76
2022/04/23 09:01:18;;;;;;;23.83;15.50;;;14.90;99.90;;;;;;5110921;28;20497;-76
2022/04/23 09:03:45;;;;;;;20.10;14.97;;;15.30;99.90;;;;;;5106365;28;20458;-76
2022/04/23 09:06:11;;;;;;;20.20;14.27;;;15.50;99.90;;;;;;5091469;28;20461;-75
2022/04/23 09:09:02;;;;;;;21.37;14.90;;;15.40;99.90;;;;;;5099992;28;20519;-76
2022/04/23 09:11:35;;;;;;;18.33;13.50;;;15.10;99.90;;;;;;5109328;28;20499;-75
2022/04/23 09:14:03;;;;;;;22.37;16.43;;;14.90;99.90;;;;;;5110373;28;20856;-75
2022/04/23 09:24:45;;;;;;;20.00;13.80;;;14.60;99.90;;;;;;5107003;28;20437;-75
2022/04/23 09:27:12;;;;;;;19.40;14.60;;;14.90;99.90;;;;;;5105909;28;20455;-75
2022/04/23 09:29:42;;;;;;;23.50;14.90;;;15.30;99.90;;;;;;5106158;28;20861;-75
2022/04/23 09:32:10;;;;;;;19.63;15.07;;;15.50;99.90;;;;;;5105588;28;20450;-75
2022/04/23 09:34:37;;;;;;;19.23;13.37;;;15.70;99.90;;;;;;5111728;28;20541;-75
2022/04/23 09:37:05;;;;;;;19.50;13.30;;;16.10;99.90;;;;;;5093911;28;20446;-75
2022/04/23 09:39:34;;;;;;;18.10;12.70;;;16.30;99.90;;;;;;5090809;28;20466;-75
2022/04/23 09:42:14;;;;;;;17.17;13.13;;;16.30;99.90;;;;;;5091144;28;21014;-75
2022/04/23 09:44:43;;;;;;;19.23;12.87;;;16.00;99.90;;;;;;5101296;28;20420;-75
2022/04/23 09:47:10;;;;;;;18.50;13.60;;;15.70;99.90;;;;;;5109671;28;20493;-76
2022/04/23 09:49:38;;;;;;;18.83;13.90;;;15.30;99.90;;;;;;5109761;28;20478;-75
2022/04/23 09:52:07;;;;;;;22.90;13.87;;;15.00;99.90;;;;;;5095200;28;20454;-75
2022/04/23 09:54:35;;;;;;;20.20;14.27;;;14.80;99.90;;;;;;5109893;28;20506;-76
2022/04/23 09:57:02;;;;;;;18.50;13.40;;;14.60;99.90;;;;;;5100794;28;20447;-75
2022/04/23 09:59:29;;;;;;;23.40;16.50;;;14.50;99.90;;;;;;5088475;28;20471;-75
2022/04/23 10:01:58;;;;;;;28.10;16.27;;;14.40;99.90;;;;;;5091756;28;20500;-76
2022/04/23 10:04:26;;;;;;;26.07;16.30;;;14.40;99.90;;;;;;5090041;28;20451;-77
2022/04/23 10:06:54;;;;;;;23.87;16.53;;;14.40;99.90;;;;;;5100900;28;20454;-76
2022/04/23 10:09:23;;;;;;;22.17;15.47;;;14.40;99.90;;;;;;5109689;28;20474;-75
2022/04/23 10:11:51;;;;;;;23.07;16.17;;;14.40;99.90;;;;;;5107600;28;21208;-75
2022/04/23 10:14:22;;;;;;;19.00;14.83;;;14.50;99.90;;;;;;5102000;28;20442;-76
2022/04/23 10:16:50;;;;;;;24.23;15.63;;;14.50;99.90;;;;;;5102167;28;20458;-74
2022/04/23 10:19:19;;;;;;;23.50;15.30;;;14.60;99.90;;;;;;5104639;28;20897;-74
2022/04/23 10:21:53;;;;;;;25.93;16.00;;;14.60;99.90;;;;;;5111515;28;20485;-74
2022/04/23 10:24:27;;;;;;;22.83;15.77;;;14.60;99.90;;;;;;5113843;28;20847;-73
2022/04/23 10:26:58;;;;;;;22.40;14.60;;;14.50;99.90;;;;;;5114040;28;21018;-73
2022/04/23 10:29:27;;;;;;;24.93;16.20;;;14.50;99.90;;;;;;5106579;28;20466;-74
2022/04/23 10:32:20;;;;;;;27.40;15.10;;;14.60;99.90;;;;;;5112056;28;20442;-75
2022/04/23 10:34:49;;;;;;;29.60;17.90;;;14.60;99.90;;;;;;5114060;28;20453;-75
2022/04/23 10:37:17;;;;;;;24.17;16.33;;;14.70;99.90;;;;;;5105137;28;20459;-76
2022/04/23 10:39:44;;;;;;;29.40;16.30;;;14.70;99.90;;;;;;5114373;28;20467;-75
2022/04/23 10:42:14;;;;;;;30.40;17.40;;;14.70;99.90;;;;;;5113995;28;20475;-74
2022/04/23 10:44:43;;;;;;;35.50;18.00;;;14.70;99.90;;;;;;5109693;28;20945;-78
2022/04/23 10:47:14;;;;;;;25.70;16.60;;;14.60;99.90;;;;;;5107627;28;20494;-78
2022/04/23 10:49:41;;;;;;;25.93;16.63;;;14.60;99.90;;;;;;5115058;28;20515;-77
2022/04/23 10:52:09;;;;;;;31.13;18.20;;;14.50;99.90;;;;;;5096128;28;20507;-77
2022/04/23 10:54:55;;;;;;;26.77;18.07;;;14.50;99.90;;;;;;5093407;28;20463;-75
2022/04/23 10:57:23;;;;;;;24.00;16.50;;;14.50;99.90;;;;;;5106434;28;20822;-77
2022/04/23 10:59:52;;;;;;;28.80;17.77;;;14.50;99.90;;;;;;5108149;27;20556;-76
2022/04/23 11:02:32;;;;;;;27.27;17.93;;;14.40;99.90;;;;;;5097040;28;20872;-76
2022/04/23 11:13:27;;;;;;;31.43;17.70;;;14.20;99.90;;;;;;5092817;28;20439;-74
2022/04/23 11:16:08;;;;;;;28.77;18.63;;;14.20;99.90;;;;;;5109295;28;20457;-73
2022/04/23 11:18:35;;;;;;;30.87;18.93;;;14.20;99.90;;;;;;5094591;28;20442;-73
2022/04/23 11:21:07;;;;;;;23.90;15.80;;;14.30;99.90;;;;;;5093559;28;20535;-74
2022/04/23 11:23:37;;;;;;;26.53;16.97;;;14.50;99.90;;;;;;5103200;28;20454;-73
2022/04/23 11:26:03;;;;;;;23.97;15.70;;;14.70;99.90;;;;;;5106566;28;20461;-73
2022/04/23 11:28:30;;;;;;;22.60;15.97;;;14.70;99.90;;;;;;5100217;28;20500;-73
2022/04/23 11:30:57;;;;;;;28.30;17.73;;;14.80;99.90;;;;;;5093266;28;20466;-73
2022/04/23 11:33:24;;;;;;;28.40;17.67;;;14.90;99.90;;;;;;5091976;28;20479;-72
2022/04/23 11:35:50;;;;;;;29.10;17.37;;;15.10;99.90;;;;;;5107891;28;20801;-74
2022/04/23 11:38:22;;;;;;;37.33;17.27;;;15.60;99.90;;;;;;5100052;28;20442;-73
2022/04/23 11:40:50;;;;;;;25.87;16.60;;;15.90;99.90;;;;;;5102505;28;20481;-73
2022/04/23 11:43:31;;;;;;;25.40;16.43;;;16.00;99.90;;;;;;5102543;28;20810;-74
2022/04/23 11:46:06;;;;;;;28.93;17.23;;;16.10;99.90;;;;;;5102717;28;20450;-73
2022/04/23 11:48:46;;;;;;;25.90;17.80;;;16.00;99.90;;;;;;5100218;28;20555;-73
2022/04/23 11:51:13;;;;;;;26.30;16.97;;;15.80;99.90;;;;;;5098508;28;20462;-73
2022/04/23 11:53:49;;;;;;;33.77;16.10;;;15.70;99.90;;;;;;5102833;28;20483;-73
2022/04/23 11:56:22;;;;;;;22.13;15.13;;;15.60;99.90;;;;;;5101057;28;20504;-73
2022/04/23 11:58:52;;;;;;;25.77;16.80;;;15.60;99.90;;;;;;5097120;28;20458;-74
2022/04/23 12:01:19;;;;;;;25.50;16.17;;;15.70;99.90;;;;;;5106794;28;20908;-74
2022/04/23 12:03:49;;;;;;;23.07;15.60;;;15.80;99.90;;;;;;5096433;28;20682;-73
2022/04/23 12:06:15;;;;;;;22.07;14.60;;;15.80;99.90;;;;;;5102071;28;20484;-73
2022/04/23 12:08:42;;;;;;;23.00;14.30;;;15.80;99.90;;;;;;5095880;28;20421;-73
2022/04/23 12:11:20;;;;;;;19.50;13.10;;;15.80;99.90;;;;;;5101534;28;20459;-73
2022/04/23 12:13:48;;;;;;;20.73;13.13;;;15.70;99.90;;;;;;5096107;28;20591;-73
2022/04/23 12:16:29;;;;;;;19.40;13.87;;;15.70;99.90;;;;;;5100932;28;20434;-73
2022/04/23 12:18:59;;;;;;;27.87;19.10;;;15.70;99.90;;;;;;5099553;28;21288;-74
2022/04/23 12:21:26;;;;;;;40.87;23.80;;;15.70;99.90;;;;;;5106780;28;20535;-75
2022/04/23 12:23:53;;;;;;;43.07;26.20;;;15.70;99.90;;;;;;5101332;28;20421;-75
2022/04/23 12:26:21;;;;;;;41.73;27.20;;;15.70;99.90;;;;;;5106943;28;20449;-75
2022/04/23 12:43:18;;;;;;;41.50;25.80;;;15.70;99.90;;;;;;5091547;28;20500;-75
2022/04/23 12:45:47;;;;;;;43.20;25.57;;;15.60;99.90;;;;;;5102833;28;20950;-75
2022/04/23 12:48:14;;;;;;;38.57;25.70;;;15.60;99.90;;;;;;5098367;28;20438;-75
2022/04/23 12:50:41;;;;;;;41.50;25.00;;;15.50;99.90;;;;;;5098969;28;20476;-75
2022/04/23 12:53:07;;;;;;;42.43;25.80;;;15.60;99.90;;;;;;5105001;28;20445;-74
2022/04/23 12:55:37;;;;;;;37.23;24.47;;;15.70;99.90;;;;;;5098968;28;20446;-75
2022/04/23 12:58:08;;;;;;;35.10;23.33;;;15.90;99.90;;;;;;5098364;28;20453;-76
2022/04/23 13:00:36;;;;;;;40.53;24.93;;;15.90;99.90;;;;;;5096937;28;20478;-76
2022/04/23 13:03:23;;;;;;;40.50;24.57;;;16.00;99.90;;;;;;5106454;28;20499;-74
2022/04/23 13:05:49;;;;;;;29.67;17.43;;;16.00;99.90;;;;;;5099281;28;20481;-74
2022/04/23 13:11:24;;;;;;;15.00;12.07;;;15.90;99.90;;;;;;5100002;28;20523;-74
2022/04/23 13:13:47;;;;;;;18.00;13.20;;;15.80;99.90;;;;;;5106557;28;20446;-74
2022/04/23 13:16:14;;;;;;;18.37;13.10;;;15.70;99.90;;;;;;5104241;28;20450;-74
2022/04/23 13:18:42;;;;;;;20.17;14.23;;;15.60;99.90;;;;;;5107715;28;20537;-74